Weather at Horse Feathers Airport

Public forecast

Using degrees Fahrenheit for public forecast. Weather courtesy of forecast.io.

Closest aviation weather report (METAR) to Horse Feathers Airport

Closest report is Warrenton Fauquier Airport, 3.6 nm (6.7 km) SE. Retrieved 2021/01/27 03:35 UTC (12 minutes ago):

KHWY 270335Z AUTO 00000KT 1SM BR OVC003 03/02 A2989 RMK AO2 T00300017

Closest aviation forecast (TAF) to Horse Feathers Airport

Forecast is more than 12 hours old.

Closest forecast is Quantico MCAF /Turner field, 22.7 nm (42.0 km) ESE. Retrieved 2016/02/08 15:59 UTC (5 years ago):

TAF COR KNYG 081500Z 0815/0915 VRB06KT 9999 FEW080 SCT180 620209 621105 540009 540909 QNH2970INS BECMG 0822/0823 VRB06KT 9000 -RA FEW030 SCT080 BKN120 620209 621105 540009 540909 QNH2952INS BECMG 0905/0907 VRB06KT 8000 RASN 600000 500000 BKN020 OVC030 500000 QNH2947INS T07/0820Z T00/0911Z COR 1553